createdAt,value
2018-06-12T00:00:04.912Z,86.40
2018-06-12T00:02:33.803Z,86.50
2018-06-12T00:05:02.674Z,86.50
2018-06-12T00:07:31.566Z,86.60
2018-06-12T00:10:00.532Z,86.80
2018-06-12T00:12:29.366Z,86.90
2018-06-12T00:14:58.256Z,87.10
2018-06-12T00:17:27.128Z,87.20
2018-06-12T00:19:56.109Z,87.10
2018-06-12T00:22:25.016Z,87.30
2018-06-12T00:24:54.533Z,87.30
2018-06-12T00:27:23.436Z,87.50
2018-06-12T00:29:52.332Z,87.80
2018-06-12T00:32:21.236Z,88.00
2018-06-12T00:34:50.124Z,88.30
2018-06-12T00:37:18.957Z,88.60
2018-06-12T00:39:47.871Z,88.50
2018-06-12T00:42:16.725Z,88.40
2018-06-12T00:44:45.657Z,88.50
2018-06-12T00:47:14.486Z,88.50
2018-06-12T00:49:43.449Z,88.50
2018-06-12T00:52:12.281Z,88.60
2018-06-12T00:54:41.244Z,88.80
2018-06-12T00:57:10.420Z,88.90
2018-06-12T00:59:39.313Z,89.20
2018-06-12T01:02:08.176Z,89.30
2018-06-12T01:04:37.097Z,89.30
2018-06-12T01:07:06.021Z,89.20
2018-06-12T01:09:34.901Z,89.40
2018-06-12T01:12:03.812Z,89.20
2018-06-12T01:14:32.699Z,89.30
2018-06-12T01:19:30.085Z,89.20
2018-06-12T01:21:58.952Z,89.50
2018-06-12T01:24:27.873Z,89.90
2018-06-12T01:26:56.662Z,90.00
2018-06-12T01:29:25.556Z,89.10
2018-06-12T01:31:54.506Z,88.80
2018-06-12T01:34:23.333Z,88.80
2018-06-12T01:36:52.312Z,88.80
2018-06-12T01:41:49.644Z,87.80
2018-06-12T01:44:18.643Z,87.80
2018-06-12T01:46:47.514Z,87.90
2018-06-12T01:49:16.480Z,88.00
2018-06-12T01:51:45.349Z,88.10
2018-06-12T01:54:14.287Z,88.10
2018-06-12T01:56:43.100Z,88.20
2018-06-12T01:59:12.009Z,88.30
2018-06-12T02:01:40.901Z,88.10
2018-06-12T02:04:09.849Z,87.50
2018-06-12T02:06:38.713Z,86.20
2018-06-12T02:09:07.600Z,86.00
2018-06-12T02:11:36.560Z,85.80
2018-06-12T02:14:05.515Z,86.30
2018-06-12T02:16:34.341Z,87.50
2018-06-12T02:19:03.268Z,87.10
2018-06-12T02:21:32.170Z,86.00
2018-06-12T02:24:01.096Z,85.90
2018-06-12T02:26:29.954Z,85.90
2018-06-12T02:28:58.868Z,85.80
2018-06-12T02:31:27.687Z,85.70
2018-06-12T02:33:56.605Z,86.00
2018-06-12T02:36:25.561Z,86.80
2018-06-12T02:38:54.449Z,86.90
2018-06-12T02:41:23.429Z,86.90
2018-06-12T02:43:52.349Z,86.90
2018-06-12T02:48:49.712Z,85.80
2018-06-12T02:51:18.636Z,85.20
2018-06-12T02:53:47.528Z,85.30
2018-06-12T02:56:16.375Z,85.20
2018-06-12T02:58:45.305Z,84.90
2018-06-12T03:01:14.158Z,85.50
2018-06-12T03:03:43.073Z,84.50
2018-06-12T03:08:40.436Z,85.50
2018-06-12T03:11:09.353Z,85.60
2018-06-12T03:13:38.228Z,86.00
2018-06-12T03:18:35.569Z,85.90
2018-06-12T03:21:04.376Z,85.90
2018-06-12T03:28:30.256Z,86.50
2018-06-12T03:30:59.184Z,86.30
2018-06-12T03:33:27.996Z,86.00
2018-06-12T03:35:56.904Z,85.20
2018-06-12T03:40:54.261Z,84.90
2018-06-12T03:43:23.133Z,85.10
2018-06-12T03:45:51.961Z,85.00
2018-06-12T03:50:49.336Z,84.40
2018-06-12T03:53:18.273Z,83.40
2018-06-12T03:55:47.088Z,82.80
2018-06-12T03:58:16.006Z,83.00
2018-06-12T04:03:13.355Z,83.00
2018-06-12T04:05:42.234Z,83.00
2018-06-12T04:08:11.114Z,83.10
2018-06-12T04:10:39.931Z,83.50
2018-06-12T04:13:08.856Z,83.80
2018-06-12T04:15:37.723Z,83.40
2018-06-12T04:20:35.144Z,83.40
2018-06-12T04:23:03.937Z,82.80
2018-06-12T04:25:32.845Z,82.80
2018-06-12T04:28:01.772Z,83.10
2018-06-12T04:30:30.597Z,83.20
2018-06-12T04:32:59.520Z,82.70
2018-06-12T04:35:28.342Z,82.60
2018-06-12T04:40:25.756Z,82.00
2018-06-12T04:42:54.625Z,82.20
2018-06-12T04:45:23.568Z,81.90
2018-06-12T04:47:52.537Z,81.60
2018-06-12T04:50:21.436Z,81.40
2018-06-12T04:52:50.324Z,81.20
2018-06-12T04:55:19.155Z,80.60
2018-06-12T05:00:18.617Z,79.40
2018-06-12T05:02:47.538Z,78.00
2018-06-12T05:05:16.328Z,77.20
2018-06-12T05:07:45.215Z,77.30
2018-06-12T05:10:14.112Z,77.30
2018-06-12T05:12:42.933Z,78.00
2018-06-12T05:17:40.268Z,77.00
2018-06-12T05:20:09.243Z,76.50
2018-06-12T05:22:38.156Z,76.10
2018-06-12T05:25:07.083Z,75.90
2018-06-12T05:27:35.880Z,76.10
2018-06-12T05:30:04.864Z,76.60
2018-06-12T05:32:33.784Z,76.70
2018-06-12T05:35:02.738Z,77.00
2018-06-12T05:40:00.045Z,77.10
2018-06-12T05:42:28.897Z,76.70
2018-06-12T05:47:26.221Z,77.00
2018-06-12T05:49:55.136Z,77.10
2018-06-12T05:52:23.964Z,76.80
2018-06-12T05:54:52.893Z,77.70
2018-06-12T05:57:21.764Z,78.30
2018-06-12T05:59:50.663Z,79.00
2018-06-12T06:02:19.585Z,78.90
2018-06-12T06:04:48.520Z,78.30
2018-06-12T06:07:17.387Z,77.40
2018-06-12T06:09:46.272Z,78.00
2018-06-12T06:12:15.178Z,76.50
2018-06-12T06:14:44.080Z,76.00
2018-06-12T06:17:13.068Z,75.20
2018-06-12T06:19:41.951Z,73.90
2018-06-12T06:27:07.764Z,71.70
2018-06-12T06:29:36.695Z,70.80
2018-06-12T06:34:34.088Z,71.40
2018-06-12T06:37:03.021Z,70.70
2018-06-12T06:39:31.949Z,70.40
2018-06-12T06:44:29.303Z,68.80
2018-06-12T06:46:58.152Z,67.80
2018-06-12T06:49:27.089Z,67.90
2018-06-12T06:51:55.987Z,70.00
2018-06-12T06:54:24.913Z,69.30
2018-06-12T06:56:53.886Z,70.40
2018-06-12T06:59:22.901Z,69.70
2018-06-12T07:01:51.759Z,70.00
2018-06-12T07:06:49.393Z,68.10
2018-06-12T07:11:46.773Z,67.10
2018-06-12T07:14:15.701Z,67.40
2018-06-12T07:19:13.061Z,68.70
2018-06-12T07:21:41.990Z,68.40
2018-06-12T07:24:10.929Z,67.30
2018-06-12T07:26:39.868Z,66.70
2018-06-12T07:29:08.743Z,66.00
2018-06-12T07:31:37.726Z,66.00
2018-06-12T07:34:06.597Z,65.20
2018-06-12T07:36:35.484Z,63.50
2018-06-12T07:39:06.500Z,61.60
2018-06-12T07:41:35.427Z,62.10
2018-06-12T07:44:04.352Z,62.20
2018-06-12T07:46:33.340Z,62.90
2018-06-12T07:49:02.223Z,62.50
2018-06-12T07:53:59.700Z,58.70
2018-06-12T07:56:28.672Z,57.50
2018-06-12T07:58:57.595Z,57.40
2018-06-12T08:01:26.470Z,58.70
2018-06-12T08:03:55.378Z,57.90
2018-06-12T08:06:24.241Z,56.60
2018-06-12T08:08:53.141Z,56.50
2018-06-12T08:11:22.008Z,57.20
2018-06-12T08:13:50.900Z,56.70
2018-06-12T08:16:19.761Z,56.20
2018-06-12T08:18:48.684Z,55.70
2018-06-12T08:21:17.573Z,55.30
2018-06-12T08:23:46.558Z,54.70
2018-06-12T08:26:15.440Z,54.30
2018-06-12T08:28:44.442Z,54.80
2018-06-12T08:31:13.417Z,55.30
2018-06-12T08:33:42.352Z,53.00
2018-06-12T08:36:11.184Z,53.00
2018-06-12T08:38:40.089Z,53.10
2018-06-12T08:41:09.093Z,54.00
2018-06-12T08:43:38.037Z,53.40
2018-06-12T08:46:07.192Z,52.90
2018-06-12T08:48:36.013Z,53.20
2018-06-12T08:51:04.979Z,54.50
2018-06-12T08:53:33.852Z,55.20
2018-06-12T08:56:02.836Z,54.40
2018-06-12T08:58:31.700Z,54.90
2018-06-12T09:01:00.680Z,54.50
2018-06-12T09:03:29.561Z,54.40
2018-06-12T09:08:27.104Z,52.00
2018-06-12T09:10:55.982Z,51.50
2018-06-12T09:13:25.920Z,52.60
2018-06-12T09:15:54.958Z,53.40
2018-06-12T09:18:23.970Z,54.10
2018-06-12T09:20:52.939Z,54.00
2018-06-12T09:23:21.859Z,54.20
2018-06-12T09:25:50.796Z,54.70
2018-06-12T09:28:19.653Z,54.10
2018-06-12T09:30:48.537Z,53.60
2018-06-12T09:33:17.381Z,53.50
2018-06-12T09:35:46.273Z,54.20
2018-06-12T09:38:15.126Z,54.40
2018-06-12T09:40:44.016Z,55.30
2018-06-12T09:43:13.716Z,55.10
2018-06-12T09:45:42.670Z,55.10
2018-06-12T09:48:11.525Z,54.70
2018-06-12T09:50:40.477Z,54.50
2018-06-12T09:53:09.380Z,54.10
2018-06-12T09:55:38.256Z,53.00
2018-06-12T09:58:07.129Z,52.50
2018-06-12T10:00:41.101Z,49.90
2018-06-12T10:03:10.000Z,48.40
2018-06-12T10:05:38.885Z,47.10
2018-06-12T10:10:36.281Z,46.30
2018-06-12T10:13:05.189Z,45.20
2018-06-12T10:15:34.086Z,45.30
2018-06-12T10:18:02.986Z,45.40
2018-06-12T10:20:31.859Z,44.50
2018-06-12T10:23:00.967Z,45.80
2018-06-12T10:25:29.902Z,46.00
2018-06-12T10:30:27.360Z,44.50
2018-06-12T10:32:56.246Z,44.70
2018-06-12T10:35:25.236Z,45.70
2018-06-12T10:37:54.291Z,44.10
2018-06-12T10:40:23.176Z,43.90
2018-06-12T10:42:52.120Z,44.60
2018-06-12T10:45:21.049Z,44.50
2018-06-12T10:47:49.988Z,44.00
2018-06-12T10:50:18.940Z,42.80
2018-06-12T10:52:47.840Z,42.50
2018-06-12T10:55:16.765Z,42.50
2018-06-12T10:57:45.600Z,43.00
2018-06-12T11:00:14.754Z,43.30
2018-06-12T11:02:43.838Z,43.60
2018-06-12T11:05:12.801Z,42.80
2018-06-12T11:07:42.893Z,44.20
2018-06-12T11:10:14.147Z,43.30
2018-06-12T11:12:43.847Z,43.00
2018-06-12T11:15:13.625Z,42.10
2018-06-12T11:17:44.101Z,43.40
2018-06-12T11:20:13.647Z,44.00
2018-06-12T11:22:44.148Z,45.10
2018-06-12T11:25:15.080Z,45.20
2018-06-12T11:30:26.525Z,47.70
2018-06-12T11:32:56.221Z,47.80
2018-06-12T11:35:27.284Z,47.10
2018-06-12T11:37:59.076Z,48.00
2018-06-12T11:40:28.016Z,46.90
2018-06-12T11:42:56.915Z,46.00
2018-06-12T11:45:26.057Z,44.80
2018-06-12T11:50:33.432Z,44.80
2018-06-12T11:53:02.295Z,44.70
2018-06-12T11:55:31.250Z,43.90
2018-06-12T11:58:00.137Z,43.40
2018-06-12T12:00:29.141Z,44.10
2018-06-12T12:02:58.138Z,43.40
2018-06-12T12:05:27.096Z,42.20
2018-06-12T12:07:55.998Z,41.10
2018-06-12T12:12:53.453Z,40.50
2018-06-12T12:15:22.450Z,39.60
2018-06-12T12:17:51.349Z,38.40
2018-06-12T12:20:20.304Z,38.50
2018-06-12T12:22:49.185Z,39.00
2018-06-12T12:25:18.125Z,39.80
2018-06-12T12:27:47.109Z,40.00
2018-06-12T12:30:17.021Z,39.20
2018-06-12T12:32:45.959Z,40.40
2018-06-12T12:35:14.972Z,40.30
2018-06-12T12:37:43.920Z,41.50
2018-06-12T12:40:12.913Z,41.20
2018-06-12T12:42:41.862Z,40.60
2018-06-12T12:45:10.825Z,41.80
2018-06-12T12:47:39.745Z,42.50
2018-06-12T12:50:09.662Z,41.90
2018-06-12T12:52:38.694Z,40.00
2018-06-12T12:55:07.665Z,39.30
2018-06-12T12:57:36.550Z,40.30
2018-06-12T13:00:06.066Z,40.10
2018-06-12T13:02:34.961Z,41.30
2018-06-12T13:05:03.977Z,41.70
2018-06-12T13:07:32.932Z,41.90
2018-06-12T13:10:02.182Z,41.20
2018-06-12T13:12:31.145Z,40.70
2018-06-12T13:17:28.953Z,40.50
2018-06-12T13:19:57.917Z,38.70
2018-06-12T13:22:26.940Z,39.40
2018-06-12T13:24:55.913Z,40.40
2018-06-12T13:27:24.952Z,40.80
2018-06-12T13:29:53.873Z,40.70
2018-06-12T13:32:22.845Z,40.30
2018-06-12T13:34:52.972Z,40.20
2018-06-12T13:37:21.957Z,39.30
2018-06-12T13:39:50.836Z,39.10
2018-06-12T13:42:19.760Z,38.70
2018-06-12T13:44:48.680Z,36.90
2018-06-12T13:47:17.646Z,36.40
2018-06-12T13:49:46.564Z,37.50
2018-06-12T13:52:15.529Z,36.10
2018-06-12T13:54:44.478Z,35.90
2018-06-12T13:57:13.502Z,35.50
2018-06-12T13:59:42.441Z,35.50
2018-06-12T14:02:11.341Z,36.70
2018-06-12T14:04:40.363Z,35.80
2018-06-12T14:07:09.303Z,36.00
2018-06-12T14:09:38.262Z,37.40
2018-06-12T14:12:08.105Z,37.80
2018-06-12T14:14:37.201Z,37.70
2018-06-12T14:19:34.802Z,38.10
2018-06-12T14:22:03.796Z,38.80
2018-06-12T14:24:32.671Z,38.80
2018-06-12T14:27:01.616Z,38.30
2018-06-12T14:31:59.192Z,38.40
2018-06-12T14:34:28.214Z,38.90
2018-06-12T14:36:57.217Z,39.30
2018-06-12T14:44:23.271Z,38.40
2018-06-12T14:46:52.325Z,38.20
2018-06-12T14:49:21.438Z,37.80
2018-06-12T14:51:50.411Z,38.90
2018-06-12T14:54:19.430Z,39.20
2018-06-12T14:56:48.477Z,40.40
2018-06-12T14:59:17.737Z,41.60
2018-06-12T15:01:47.003Z,42.00
2018-06-12T15:04:16.202Z,42.20
2018-06-12T15:06:45.196Z,42.60
2018-06-12T15:09:14.156Z,41.70
2018-06-12T15:11:43.149Z,41.30
2018-06-12T15:14:12.042Z,41.20
2018-06-12T15:16:41.237Z,41.20
2018-06-12T15:19:10.181Z,41.30
2018-06-12T15:21:39.131Z,42.40
2018-06-12T15:24:08.194Z,41.80
2018-06-12T15:29:05.745Z,43.10
2018-06-12T15:31:34.995Z,44.20
2018-06-12T15:34:03.962Z,46.90
2018-06-12T15:36:32.888Z,50.60
2018-06-12T15:39:01.770Z,58.30
2018-06-12T15:41:30.625Z,66.60
2018-06-12T15:43:59.504Z,77.50
2018-06-12T15:46:28.425Z,84.10
2018-06-12T15:48:58.038Z,86.70
2018-06-12T15:51:26.908Z,84.50
2018-06-12T15:56:24.204Z,91.20
2018-06-12T15:58:53.189Z,89.60
2018-06-12T16:01:22.021Z,90.40
2018-06-12T16:03:51.025Z,90.80
2018-06-12T16:06:19.911Z,90.70
2018-06-12T16:08:48.837Z,89.90
2018-06-12T16:11:18.370Z,90.10
2018-06-12T16:13:47.401Z,90.20
2018-06-12T16:16:16.337Z,90.80
2018-06-12T16:18:45.312Z,91.20
2018-06-12T16:21:15.213Z,90.60
2018-06-12T16:23:44.041Z,90.20
2018-06-12T16:26:13.033Z,89.60
2018-06-12T16:28:41.898Z,89.70
2018-06-12T16:31:10.806Z,90.60
2018-06-12T16:36:09.117Z,90.10
2018-06-12T16:38:38.057Z,91.50
2018-06-12T16:41:06.868Z,91.40
2018-06-12T16:46:04.240Z,90.60
2018-06-12T16:48:33.083Z,90.00
2018-06-12T16:51:01.948Z,90.30
2018-06-12T16:53:31.096Z,90.60
2018-06-12T16:55:59.962Z,90.40
2018-06-12T16:58:28.836Z,90.10
2018-06-12T17:00:57.843Z,90.20
2018-06-12T17:03:26.765Z,89.50
2018-06-12T17:05:55.686Z,90.30
2018-06-12T17:10:53.089Z,88.90
2018-06-12T17:13:22.066Z,89.60
2018-06-12T17:15:51.089Z,88.30
2018-06-12T17:18:19.985Z,88.50
2018-06-12T17:20:48.918Z,88.40
2018-06-12T17:23:17.782Z,90.00
2018-06-12T17:25:46.685Z,90.20
2018-06-12T17:28:15.576Z,89.70
2018-06-12T17:30:44.408Z,89.80
2018-06-12T17:33:13.772Z,90.00
2018-06-12T17:38:11.524Z,90.40
2018-06-12T17:40:40.424Z,90.70
2018-06-12T17:43:09.319Z,90.70
2018-06-12T17:45:38.365Z,90.50
2018-06-12T17:48:07.286Z,90.30
2018-06-12T17:50:36.142Z,90.60
2018-06-12T17:53:05.212Z,90.50
2018-06-12T17:55:34.028Z,90.50
2018-06-12T17:58:02.912Z,90.60
2018-06-12T18:00:31.948Z,90.60
2018-06-12T18:03:01.448Z,90.90
2018-06-12T18:05:30.303Z,90.70
2018-06-12T18:07:59.225Z,90.30
2018-06-12T18:10:28.060Z,90.40
2018-06-12T18:12:56.942Z,90.30
2018-06-12T18:15:25.872Z,90.50
2018-06-12T18:17:54.860Z,90.40
2018-06-12T18:20:23.856Z,90.80
2018-06-12T18:22:53.053Z,91.00
2018-06-12T18:25:22.137Z,90.80
2018-06-12T18:27:51.055Z,91.10
2018-06-12T18:30:19.997Z,90.80
2018-06-12T18:32:49.944Z,90.90
2018-06-12T18:35:18.924Z,90.50
2018-06-12T18:37:47.855Z,90.30
2018-06-12T18:40:17.097Z,89.60
2018-06-12T18:45:14.659Z,89.60
2018-06-12T18:47:43.919Z,90.00
2018-06-12T18:50:12.860Z,89.80
2018-06-12T18:52:42.057Z,90.10
2018-06-12T18:55:11.825Z,90.40
2018-06-12T18:57:40.781Z,90.10
2018-06-12T19:02:43.081Z,89.60
2018-06-12T19:05:12.228Z,89.50
2018-06-12T19:07:42.241Z,90.00
2018-06-12T19:10:11.166Z,90.40
2018-06-12T19:12:39.984Z,90.90
2018-06-12T19:15:09.333Z,91.10
2018-06-12T19:17:38.314Z,91.10
2018-06-12T19:20:07.579Z,91.10
2018-06-12T19:22:38.190Z,91.10
2018-06-12T19:25:07.110Z,91.30
2018-06-12T19:27:35.973Z,91.20
2018-06-12T19:30:04.940Z,91.30
2018-06-12T19:35:02.348Z,91.70
2018-06-12T19:37:33.201Z,91.90
2018-06-12T19:40:02.152Z,91.80
2018-06-12T19:45:00.149Z,91.80
2018-06-12T19:47:29.279Z,92.30
2018-06-12T19:49:58.269Z,91.90
2018-06-12T19:52:27.240Z,92.00
2018-06-12T19:54:56.165Z,92.10
2018-06-12T19:57:25.072Z,92.10
2018-06-12T19:59:53.952Z,92.10
2018-06-12T20:02:22.836Z,92.00
2018-06-12T20:04:51.723Z,91.80
2018-06-12T20:07:21.256Z,91.90
2018-06-12T20:09:52.216Z,91.90
2018-06-12T20:12:21.374Z,92.00
2018-06-12T20:14:50.488Z,91.90
2018-06-12T20:17:19.520Z,91.80
2018-06-12T20:19:48.384Z,91.90
2018-06-12T20:22:17.372Z,91.80
2018-06-12T20:24:46.319Z,91.90
2018-06-12T20:27:18.229Z,91.70
2018-06-12T20:29:47.293Z,91.50
2018-06-12T20:32:16.220Z,91.50
2018-06-12T20:34:45.061Z,91.50
2018-06-12T20:37:14.123Z,91.60
2018-06-12T20:39:43.013Z,91.60
2018-06-12T20:44:40.359Z,91.80
2018-06-12T20:47:09.320Z,91.80
2018-06-12T20:49:38.241Z,91.60
2018-06-12T20:52:07.212Z,91.60
2018-06-12T20:54:36.024Z,91.70
2018-06-12T20:57:04.940Z,91.40
2018-06-12T21:02:02.532Z,91.00
2018-06-12T21:04:31.477Z,91.10
2018-06-12T21:09:29.181Z,91.30
2018-06-12T21:11:58.110Z,91.40
2018-06-12T21:14:26.937Z,91.40
2018-06-12T21:16:55.824Z,91.40
2018-06-12T21:19:24.693Z,91.40
2018-06-12T21:21:53.601Z,91.50
2018-06-12T21:24:22.498Z,91.60
2018-06-12T21:26:51.399Z,91.80
2018-06-12T21:29:20.250Z,91.80
2018-06-12T21:31:49.092Z,91.80
2018-06-12T21:39:15.089Z,91.70
2018-06-12T21:41:43.912Z,91.60
2018-06-12T21:44:12.896Z,91.60
2018-06-12T21:46:41.758Z,91.50
2018-06-12T21:49:10.621Z,91.50
2018-06-12T21:51:39.447Z,91.40
2018-06-12T21:54:08.352Z,91.20
2018-06-12T21:56:37.288Z,91.50
2018-06-12T22:01:34.620Z,91.60
2018-06-12T22:04:03.534Z,91.60
2018-06-12T22:06:32.333Z,91.60
2018-06-12T22:11:29.717Z,92.00
2018-06-12T22:13:58.725Z,92.20
2018-06-12T22:16:27.629Z,92.50
2018-06-12T22:18:56.514Z,92.50
2018-06-12T22:21:25.460Z,92.60
2018-06-12T22:23:54.338Z,92.50
2018-06-12T22:26:23.269Z,92.70
2018-06-12T22:28:52.157Z,92.80
2018-06-12T22:33:49.499Z,92.80
2018-06-12T22:36:18.405Z,92.70
2018-06-12T22:38:47.325Z,92.60
2018-06-12T22:41:16.164Z,92.60
2018-06-12T22:43:45.080Z,92.40
2018-06-12T22:48:42.424Z,92.40
2018-06-12T22:51:11.239Z,92.30
2018-06-12T22:56:08.533Z,92.30
2018-06-12T22:58:37.451Z,92.30
2018-06-12T23:01:06.357Z,92.30
2018-06-12T23:03:35.309Z,92.20
2018-06-12T23:06:04.171Z,92.20
2018-06-12T23:11:01.494Z,92.20
2018-06-12T23:13:30.340Z,92.10
2018-06-12T23:18:27.745Z,92.10
2018-06-12T23:21:11.302Z,92.10
2018-06-12T23:23:40.184Z,92.00
2018-06-12T23:26:09.067Z,92.00
2018-06-12T23:28:37.942Z,92.00
2018-06-12T23:31:06.789Z,92.10
2018-06-12T23:33:35.660Z,92.10
2018-06-12T23:36:04.565Z,92.10
2018-06-12T23:38:33.527Z,92.10
2018-06-12T23:41:02.344Z,92.00
2018-06-12T23:43:31.248Z,92.00
2018-06-12T23:46:00.073Z,92.10
2018-06-12T23:48:29.018Z,92.10
2018-06-12T23:50:57.904Z,92.00
2018-06-12T23:53:26.828Z,92.10
2018-06-12T23:55:55.645Z,92.10
2018-06-12T23:58:24.580Z,92.10
